ADDS METAR Data INFO
IDs: Format: Raw Decoded Include TAF

Data at: 1355 UTC 17 Dec 2017

KMGN 171335Z AUTO 07005KT 10SM OVC024 M10/M12 A3024 RMK AO2 T11021125
KMGN 171316Z AUTO 07004KT 10SM OVC024 M10/M12 A3024 RMK AO2 T11061128
KMGN 171255Z AUTO 06004KT 10SM OVC026 M11/M13 A3025 RMK AO2 T11111131
KMGN 171235Z AUTO 05003KT 10SM OVC028 M12/M13 A3025 RMK AO2 T11231140
KMGN 171215Z AUTO 06005KT 10SM OVC026 M12/M13 A3025 RMK AO2 T11201139
KMGN 171155Z AUTO 06005KT 10SM OVC026 M12/M13 A3024 RMK AO2 T11191139
KMGN 171135Z AUTO 07006KT 10SM OVC026 M12/M14 A3024 RMK AO2 T11221143
KMGN 171115Z AUTO 05007KT 10SM SCT019 OVC026 M12/M13 A3022 RMK AO2 T11221137
KMGN 171055Z AUTO 07005KT 10SM OVC026 M13/M15 A3024 RMK AO2 T11311148
KMGN 171035Z AUTO 07004KT 10SM OVC026 M13/M15 A3024 RMK AO2 T11351150
KMGN 171015Z AUTO 06005KT 10SM SCT010 SCT016 OVC028 M13/M15 A3024 RMK AO2 T11361151
KMGN 170955Z AUTO 06006KT 10SM SCT010 BKN028 M13/M15 A3023 RMK AO2 T11321149
KMGN 170935Z AUTO 08007KT 10SM SCT010 M13/M15 A3023 RMK AO2 T11321149
KMGN 170915Z AUTO 07006KT 10SM SCT010 M13/M15 A3023 RMK AO2 T11311150
KMGN 170855Z AUTO 06007KT 10SM BKN010 BKN017 M12/M13 A3024 RMK AO2 T11211140
KMGN 170835Z AUTO 07006KT 10SM SCT017 M12/M15 A3025 RMK AO2 T11271148
KMGN 170815Z AUTO 06007KT 10SM BKN017 M12/M13 A3025 RMK AO2 T11201140
KMGN 170755Z AUTO 05007KT 10SM BKN017 M12/M14 A3025 RMK AO2 T11211142
KMGN 170735Z AUTO 06006KT 10SM SCT017 M12/M14 A3025 RMK AO2 T11221142
KMGN 170715Z AUTO 05006KT 10SM SCT036 M12/M14 A3025 RMK AO2 T11231143
KMGN 170655Z AUTO 06005KT 10SM BKN036 BKN060 M12/M14 A3025 RMK AO2 T11291146
KMGN 170635Z AUTO 05005KT 10SM SCT036 BKN060 M12/M14 A3025 RMK AO2 T11211143
KMGN 170615Z AUTO 05005KT 10SM BKN060 M11/M13 A3024 RMK AO2 T11181140
KMGN 170555Z AUTO 05006KT 10SM SCT060 SCT080 M12/M14 A3024 RMK AO2 T11201142
KMGN 170536Z AUTO 05006KT 10SM SCT070 OVC080 M11/M13 A3024 RMK AO2 T11141139
KMGN 170515Z AUTO 06006KT 10SM BKN070 OVC080 M11/M13 A3024 RMK AO2 T11121137
KMGN 170455Z AUTO 06007KT 10SM OVC070 M11/M13 A3025 RMK AO2 T11121137
KMGN 170436Z AUTO 07008KT 10SM OVC070 M11/M13 A3024 RMK AO2 T11131138
KMGN 170415Z AUTO 08007KT 10SM OVC070 M11/M13 A3024 RMK AO2 T11121138
KMGN 170355Z AUTO 07007KT 10SM OVC070 M11/M13 A3023 RMK AO2 T11141140
KMGN 170335Z AUTO 07007KT 10SM OVC080 M11/M13 A3023 RMK AO2 T11151140
KMGN 170315Z AUTO 08007KT 10SM OVC080 M11/M14 A3023 RMK AO2 T11161142
KMGN 170255Z AUTO 07006KT 10SM BKN080 OVC100 M11/M14 A3023 RMK AO2 T11181145
KMGN 170235Z AUTO 07005KT 10SM SCT080 OVC100 M12/M14 A3023 RMK AO2 T11201145
KMGN 170215Z AUTO 07007KT 10SM OVC100 M12/M14 A3021 RMK AO2 T11201145
KMGN 170155Z AUTO 07008KT 10SM OVC100 M12/M14 A3021 RMK AO2 T11201143
KMGN 170135Z AUTO 07007KT 10SM OVC100 M12/M14 A3021 RMK AO2 T11211145
KMGN 170115Z AUTO 06005KT 10SM SCT011 OVC100 M12/M14 A3021 RMK AO2 T11231146
KMGN 170055Z AUTO 06005KT 10SM SCT011 SCT090 OVC110 M12/M14 A3021 RMK AO2 T11251146
KMGN 170035Z AUTO 06005KT 10SM SCT095 M13/M15 A3020 RMK AO2 T11311151
KMGN 170015Z AUTO 07007KT 10SM BKN095 M13/M15 A3019 RMK AO2 T11311151
KMGN 162355Z AUTO 06006KT 10SM SCT095 M12/M14 A3018 RMK AO2 T11261146
KMGN 162335Z AUTO 06006KT 10SM CLR M12/M14 A3019 RMK AO2 T11241145
KMGN 162315Z AUTO 05006KT 10SM CLR M12/M14 A3017 RMK AO2 T11211142
KMGN 162255Z AUTO 06007KT 10SM CLR M12/M14 A3015 RMK AO2 T11201144
KMGN 162235Z AUTO 07006KT 10SM CLR M11/M14 A3015 RMK AO2 T11151142
KMGN 162215Z AUTO 07009KT 10SM CLR M11/M13 A3014 RMK AO2 T11121140
KMGN 162155Z AUTO 06007KT 10SM CLR M11/M13 A3013 RMK AO2 T11101140
KMGN 162135Z AUTO 05008KT 10SM CLR M11/M13 A3013 RMK AO2 T11101140
KMGN 162115Z AUTO 06008KT 10SM CLR M11/M13 A3011 RMK AO2 T11101140
KMGN 162055Z AUTO 07009KT 10SM SCT016 M10/M13 A3010 RMK AO2 T11071140
KMGN 162035Z AUTO 06008KT 10SM SCT016 M10/M14 A3010 RMK AO2 T11071141
KMGN 162015Z AUTO 07009KT 10SM BKN016 M10/M14 A3009 RMK AO2 T11061141
KMGN 161955Z AUTO 07008KT 10SM BKN016 M10/M14 A3008 RMK AO2 T11071142
KMGN 161935Z AUTO 07007KT 10SM BKN016 M10/M14 A3007 RMK AO2 T11061141
KMGN 161915Z AUTO 08010G15KT 10SM OVC016 M10/M14 A3007 RMK AO2 T11071142
KMGN 161855Z AUTO 06010KT 10SM OVC016 M10/M14 A3005 RMK AO2 T11061141
KMGN 161835Z AUTO 07008KT 10SM OVC016 M10/M13 A3006 RMK AO2 T11061140
KMGN 161815Z AUTO 05010KT 10SM OVC016 M10/M14 A3006 RMK AO2 T11061141
KMGN 161755Z AUTO 06011KT 10SM OVC016 M10/M14 A3005 RMK AO2 T11041141
KMGN 161735Z AUTO 06010KT 10SM OVC016 M10/M14 A3006 RMK AO2 T11061141
KMGN 161715Z AUTO 05008KT 10SM OVC016 M11/M13 A3006 RMK AO2 T11081141
KMGN 161655Z AUTO 06007KT 10SM OVC016 M11/M14 A3005 RMK AO2 T11101141
KMGN 161635Z AUTO 07010KT 10SM -SN OVC016 M10/M13 A3004 RMK AO2 T11051137
KMGN 161615Z AUTO 06008KT 10SM -SN OVC016 M10/M13 A3004 RMK AO2 T11051136
KMGN 161555Z AUTO 05008G14KT 10SM -SN OVC018 M11/M13 A3004 RMK AO2 T11081139
KMGN 161535Z AUTO 05010KT 7SM -SN OVC018 M11/M13 A3004 RMK AO2 T11091140
KMGN 161515Z AUTO 05006KT 5SM -SN OVC018 M11/M14 A3003 RMK AO2 T11141141
KMGN 161455Z AUTO 05007KT 5SM -SN OVC016 M11/M14 A3001 RMK AO2 T11161142
KMGN 161435Z AUTO 07006KT 10SM -SN OVC014 M12/M14 A3001 RMK AO2 T11201146
KMGN 161415Z AUTO 04008KT 10SM OVC014 M12/M14 A3000 RMK AO2 T11221146
KMGN 161355Z AUTO 05007KT 10SM OVC014 M12/M14 A2999 RMK AO2 T11241145
KMGN 161335Z AUTO 05006KT 10SM SCT012 M12/M14 A2999 RMK AO2 T11231145
KMGN 161315Z AUTO 06007KT 10SM SCT010 SCT037 M12/M14 A2997 RMK AO2 T11221145
KMGN 161255Z AUTO 05008KT 10SM SCT010 OVC037 M12/M14 A2996 RMK AO2 T11191143
KMGN 161235Z AUTO 06009KT 10SM -SN OVC037 M11/M13 A2996 RMK AO2 T11151139
KMGN 161215Z AUTO 05008KT 10SM OVC037 M11/M13 A2994 RMK AO2 T11121135
KMGN 161155Z AUTO 06009KT 10SM -SN SCT011 OVC037 M11/M13 A2993 RMK AO2 T11101131
KMGN 161135Z AUTO 06009KT 7SM -SN OVC037 M10/M12 A2992 RMK AO2 T11051127
KMGN 161115Z AUTO 07009KT 7SM -SN OVC035 M10/M12 A2991 RMK AO2 T10991122
KMGN 161055Z AUTO 06006KT 4SM -SN OVC035 M09/M11 A2990 RMK AO2 T10951118
KMGN 161035Z AUTO 05005KT 10SM OVC035 M09/M12 A2989 RMK AO2 T10941120
KMGN 161015Z AUTO 07005KT 10SM -SN OVC033 M09/M12 A2989 RMK AO2 T10911120
KMGN 160955Z AUTO 08004KT 10SM OVC033 M08/M12 A2988 RMK AO2 T10901120
KMGN 160935Z AUTO 05004KT 10SM BKN014 OVC035 M08/M11 A2987 RMK AO2 T10881118
KMGN 160915Z AUTO 07006KT 7SM -SN BKN014 OVC037 M08/M11 A2986 RMK AO2 T10861108
KMGN 160855Z AUTO 05004KT 7SM -SN OVC037 M08/M11 A2985 RMK AO2 T10811108
KMGN 160835Z AUTO 36004KT 10SM OVC039 M07/M11 A2984 RMK AO2 T10771115
KMGN 160815Z AUTO 01004KT 10SM OVC039 M07/M11 A2984 RMK AO2 T10751117
KMGN 160755Z AUTO 35005KT 10SM OVC039 M07/M12 A2984 RMK AO2 T10731121
KMGN 160736Z AUTO 34005KT 10SM SCT020 OVC039 M07/M12 A2983 RMK AO2 T10721121
KMGN 160715Z AUTO 33005KT 10SM OVC039 M07/M11 A2982 RMK AO2 T10711117
KMGN 160655Z AUTO 33006KT 10SM OVC039 M07/M11 A2981 RMK AO2 T10701112
KMGN 160636Z AUTO 32005KT 10SM OVC041 M06/M11 A2981 RMK AO2 T10681110
KMGN 160615Z AUTO 32004KT 10SM OVC041 M06/M10 A2980 RMK AO2 T10681106
KMGN 160555Z AUTO 32003KT 10SM OVC039 M06/M10 A2981 RMK AO2 T10671105
KMGN 160535Z AUTO 33004KT 7SM -SN OVC041 M06/M11 A2980 RMK AO2 T10651110
KMGN 160515Z AUTO 31006KT 10SM OVC043 M06/M11 A2980 RMK AO2 T10631115
KMGN 160455Z AUTO 31007KT 10SM OVC041 M06/M12 A2979 RMK AO2 T10611121
KMGN 160435Z AUTO 31006KT 10SM OVC041 M06/M12 A2978 RMK AO2 T10611122
KMGN 160415Z AUTO 31007KT 280V350 10SM OVC043 M06/M11 A2978 RMK AO2 T10611118
KMGN 160355Z AUTO 31008KT 10SM BKN045 OVC050 M06/M12 A2977 RMK AO2 T10601119
KMGN 160335Z AUTO 30011G16KT 280V340 10SM OVC050 M06/M12 A2977 RMK AO2 T10601119
KMGN 160315Z AUTO 32006KT 10SM SCT039 SCT045 OVC060 M06/M11 A2976 RMK AO2 T10611113
KMGN 160255Z AUTO 33006KT 10SM SCT025 SCT039 OVC046 M06/M11 A2976 RMK AO2 T10601110
KMGN 160235Z AUTO 32005KT 7SM -SN SCT025 BKN042 OVC050 M06/M11 A2977 RMK AO2 T10601107
KMGN 160215Z AUTO 31009G14KT 10SM SCT036 OVC046 M05/M11 A2976 RMK AO2 T10571112